AVA3212 SKCG-SKRG
Flight info
| Callsign | AVA3212 |
|---|---|
| Flight time | 0h 52m |
| Altitude | 31000 |
| Route | ESKAB2A ESKAB DCT UGALU/N0442F300 DCT OTU OTU3A |
| Aircraft | A320/M-SDE3FGHIRWY/LB1 |
Departure
| Time | 2026-04-30 18:08 |
|---|---|
| Airport | Rafael Nuñez International Airport (SKCG) |
Arrival
| Time | 2026-04-30 19:00 |
|---|---|
| Airport | Jose Maria Córdova International Airport (SKRG) |
| Time | Latitude | Longitude | Altitude | Speed | Heading |
|---|---|---|---|---|---|
| 2026-04-30 17:47 | 10.44582 | -75.51547 | 49 ft | 0 kts | 271° |
| 2026-04-30 18:00 | 10.44586 | -75.51463 | 51 ft | 4 kts | 210° |
| 2026-04-30 18:00 | 10.44592 | -75.51459 | 49 ft | 0 kts | 178° |
| 2026-04-30 18:02 | 10.44552 | -75.51403 | 51 ft | 4 kts | 97° |
| 2026-04-30 18:03 | 10.44455 | -75.51278 | 51 ft | 13 kts | 186° |
| 2026-04-30 18:04 | 10.44296 | -75.51287 | 51 ft | 12 kts | 182° |
| 2026-04-30 18:05 | 10.43816 | -75.51308 | 51 ft | 19 kts | 182° |
| 2026-04-30 18:06 | 10.43231 | -75.51315 | 48 ft | 17 kts | 145° |
| 2026-04-30 18:07 | 10.43140 | -75.51335 | 48 ft | 12 kts | 4° |
| 2026-04-30 18:08 | 10.45342 | -75.51250 | 651 ft | 167 kts | 1° |
| 2026-04-30 18:09 | 10.50423 | -75.51269 | 2406 ft | 219 kts | 335° |
| 2026-04-30 18:10 | 10.49448 | -75.57047 | 4441 ft | 274 kts | 214° |
| 2026-04-30 18:11 | 10.42735 | -75.60853 | 7534 ft | 285 kts | 187° |
| 2026-04-30 18:11 | 10.36885 | -75.59783 | 9701 ft | 293 kts | 161° |
| 2026-04-30 18:12 | 10.30634 | -75.57777 | 10750 ft | 340 kts | 161° |
| 2026-04-30 18:13 | 10.26068 | -75.56324 | 11991 ft | 347 kts | 162° |
| 2026-04-30 18:13 | 10.19060 | -75.54103 | 13809 ft | 357 kts | 162° |
| 2026-04-30 18:14 | 10.14282 | -75.52576 | 14927 ft | 361 kts | 162° |
| 2026-04-30 18:15 | 10.07064 | -75.50276 | 16622 ft | 367 kts | 162° |
| 2026-04-30 18:15 | 9.99683 | -75.47940 | 18208 ft | 374 kts | 162° |
| 2026-04-30 18:16 | 9.94688 | -75.46354 | 19072 ft | 380 kts | 163° |
| 2026-04-30 18:16 | 9.89635 | -75.44750 | 19904 ft | 386 kts | 163° |
| 2026-04-30 18:17 | 9.87059 | -75.43933 | 20292 ft | 390 kts | 163° |
| 2026-04-30 18:17 | 9.84460 | -75.43110 | 20670 ft | 393 kts | 163° |
| 2026-04-30 18:17 | 9.79212 | -75.41454 | 21613 ft | 395 kts | 163° |
| 2026-04-30 18:18 | 9.76592 | -75.40625 | 22082 ft | 396 kts | 163° |
| 2026-04-30 18:18 | 9.73959 | -75.39790 | 22527 ft | 397 kts | 163° |
| 2026-04-30 18:18 | 9.71319 | -75.38950 | 22959 ft | 399 kts | 163° |
| 2026-04-30 18:18 | 9.68662 | -75.38104 | 23375 ft | 401 kts | 163° |
| 2026-04-30 18:19 | 9.65998 | -75.37257 | 23710 ft | 403 kts | 163° |
| 2026-04-30 18:19 | 9.63310 | -75.36406 | 24020 ft | 405 kts | 164° |
| 2026-04-30 18:19 | 9.60650 | -75.35567 | 24324 ft | 408 kts | 164° |
| 2026-04-30 18:19 | 9.57931 | -75.34708 | 24622 ft | 411 kts | 164° |
| 2026-04-30 18:20 | 9.55194 | -75.33842 | 24921 ft | 414 kts | 164° |
| 2026-04-30 18:20 | 9.52431 | -75.32966 | 25219 ft | 416 kts | 164° |
| 2026-04-30 18:20 | 9.49656 | -75.32086 | 25471 ft | 420 kts | 163° |
| 2026-04-30 18:20 | 9.46855 | -75.31198 | 25735 ft | 424 kts | 163° |
| 2026-04-30 18:21 | 9.44030 | -75.30304 | 26017 ft | 427 kts | 164° |
| 2026-04-30 18:21 | 9.41189 | -75.29404 | 26300 ft | 429 kts | 164° |
| 2026-04-30 18:21 | 9.38331 | -75.28500 | 26571 ft | 432 kts | 164° |
| 2026-04-30 18:21 | 9.35451 | -75.27591 | 26854 ft | 434 kts | 164° |
| 2026-04-30 18:22 | 9.32548 | -75.26674 | 27125 ft | 437 kts | 164° |
| 2026-04-30 18:22 | 9.26760 | -75.24846 | 27666 ft | 442 kts | 164° |
| 2026-04-30 18:22 | 9.23818 | -75.23913 | 27932 ft | 444 kts | 164° |
| 2026-04-30 18:23 | 9.20853 | -75.22973 | 28197 ft | 447 kts | 164° |
| 2026-04-30 18:23 | 9.17880 | -75.22030 | 28447 ft | 450 kts | 164° |
| 2026-04-30 18:23 | 9.14883 | -75.21079 | 28710 ft | 452 kts | 164° |
| 2026-04-30 18:23 | 9.11881 | -75.20131 | 28984 ft | 454 kts | 164° |
| 2026-04-30 18:24 | 9.05872 | -75.18236 | 29496 ft | 457 kts | 164° |
| 2026-04-30 18:24 | 9.02835 | -75.17276 | 29753 ft | 459 kts | 165° |
| 2026-04-30 18:24 | 8.99781 | -75.16312 | 29979 ft | 461 kts | 165° |
| 2026-04-30 18:25 | 8.96703 | -75.15340 | 30187 ft | 463 kts | 165° |
| 2026-04-30 18:25 | 8.90539 | -75.13398 | 30587 ft | 466 kts | 165° |
| 2026-04-30 18:25 | 8.87435 | -75.12419 | 30755 ft | 467 kts | 165° |
| 2026-04-30 18:26 | 8.81369 | -75.10503 | 30802 ft | 446 kts | 165° |
| 2026-04-30 18:26 | 8.78422 | -75.09572 | 30798 ft | 443 kts | 165° |
| 2026-04-30 18:27 | 8.69667 | -75.06815 | 30804 ft | 441 kts | 166° |
| 2026-04-30 18:28 | 8.60890 | -75.04048 | 30797 ft | 440 kts | 166° |
| 2026-04-30 18:28 | 8.52133 | -75.01294 | 30795 ft | 439 kts | 166° |
| 2026-04-30 18:29 | 8.40502 | -74.97639 | 30792 ft | 439 kts | 166° |
| 2026-04-30 18:30 | 8.28835 | -74.93967 | 30789 ft | 439 kts | 166° |
| 2026-04-30 18:31 | 8.20131 | -74.91232 | 30788 ft | 439 kts | 166° |
| 2026-04-30 18:32 | 8.11395 | -74.88475 | 30785 ft | 438 kts | 166° |
| 2026-04-30 18:33 | 8.02651 | -74.85736 | 30779 ft | 438 kts | 166° |
| 2026-04-30 18:33 | 7.93956 | -74.83015 | 30779 ft | 439 kts | 166° |
| 2026-04-30 18:34 | 7.85208 | -74.80265 | 30782 ft | 439 kts | 166° |
| 2026-04-30 18:35 | 7.79382 | -74.78437 | 30783 ft | 439 kts | 166° |
| 2026-04-30 18:35 | 7.73545 | -74.76604 | 30790 ft | 439 kts | 166° |
| 2026-04-30 18:36 | 7.64703 | -74.74730 | 30788 ft | 433 kts | 179° |
| 2026-04-30 18:37 | 7.55670 | -74.74186 | 30790 ft | 434 kts | 179° |
| 2026-04-30 18:37 | 7.49646 | -74.73817 | 30790 ft | 434 kts | 179° |
| 2026-04-30 18:38 | 7.43626 | -74.73457 | 30799 ft | 434 kts | 179° |
| 2026-04-30 18:38 | 7.37642 | -74.73096 | 30798 ft | 434 kts | 179° |
| 2026-04-30 18:39 | 7.31611 | -74.72733 | 30804 ft | 434 kts | 179° |
| 2026-04-30 18:39 | 7.25616 | -74.72371 | 30801 ft | 434 kts | 179° |
| 2026-04-30 18:40 | 7.19617 | -74.72007 | 30801 ft | 434 kts | 179° |
| 2026-04-30 18:40 | 7.13598 | -74.71639 | 30801 ft | 434 kts | 179° |
| 2026-04-30 18:41 | 7.07584 | -74.71285 | 30804 ft | 433 kts | 181° |
| 2026-04-30 18:41 | 7.01723 | -74.72140 | 30808 ft | 426 kts | 201° |
| 2026-04-30 18:42 | 6.96578 | -74.74961 | 30805 ft | 421 kts | 218° |
| 2026-04-30 18:42 | 6.89503 | -74.80124 | 30825 ft | 421 kts | 217° |
| 2026-04-30 18:45 | 6.65939 | -74.97281 | 28136 ft | 406 kts | 216° |
| 2026-04-30 18:45 | 6.63661 | -74.98934 | 27676 ft | 402 kts | 216° |
| 2026-04-30 18:45 | 6.61411 | -75.00569 | 27206 ft | 398 kts | 216° |
| 2026-04-30 18:46 | 6.59176 | -75.02194 | 26754 ft | 394 kts | 216° |
| 2026-04-30 18:46 | 6.56972 | -75.03799 | 26312 ft | 390 kts | 216° |
| 2026-04-30 18:46 | 6.54802 | -75.05380 | 25871 ft | 387 kts | 215° |
| 2026-04-30 18:46 | 6.52633 | -75.06962 | 25451 ft | 384 kts | 215° |
| 2026-04-30 18:47 | 6.50482 | -75.08533 | 25006 ft | 381 kts | 214° |
| 2026-04-30 18:47 | 6.48345 | -75.10093 | 24562 ft | 378 kts | 214° |
| 2026-04-30 18:47 | 6.46224 | -75.11639 | 24110 ft | 377 kts | 214° |
| 2026-04-30 18:47 | 6.44100 | -75.13181 | 23651 ft | 377 kts | 213° |
| 2026-04-30 18:48 | 6.41976 | -75.14722 | 23123 ft | 376 kts | 213° |
| 2026-04-30 18:48 | 6.39758 | -75.16108 | 22620 ft | 372 kts | 203° |
| 2026-04-30 18:48 | 6.37361 | -75.17004 | 22140 ft | 367 kts | 193° |
| 2026-04-30 18:48 | 6.34891 | -75.17667 | 21663 ft | 366 kts | 193° |
| 2026-04-30 18:49 | 6.32433 | -75.18333 | 21281 ft | 365 kts | 193° |
| 2026-04-30 18:49 | 6.30027 | -75.18989 | 20842 ft | 364 kts | 193° |
| 2026-04-30 18:49 | 6.27577 | -75.19660 | 20398 ft | 363 kts | 193° |
| 2026-04-30 18:49 | 6.25137 | -75.20329 | 19951 ft | 363 kts | 192° |
| 2026-04-30 18:50 | 6.22705 | -75.20993 | 19507 ft | 363 kts | 192° |
| 2026-04-30 18:50 | 6.20272 | -75.21658 | 19074 ft | 362 kts | 192° |
| 2026-04-30 18:50 | 6.17838 | -75.22324 | 18623 ft | 362 kts | 192° |
| 2026-04-30 18:50 | 6.15420 | -75.22984 | 18269 ft | 358 kts | 192° |
| 2026-04-30 18:51 | 6.13029 | -75.23633 | 17849 ft | 355 kts | 192° |
| 2026-04-30 18:51 | 6.10654 | -75.24276 | 17416 ft | 352 kts | 192° |
| 2026-04-30 18:51 | 6.08316 | -75.24911 | 16789 ft | 356 kts | 192° |
| 2026-04-30 18:51 | 6.05865 | -75.25576 | 16169 ft | 360 kts | 192° |
| 2026-04-30 18:52 | 6.03491 | -75.26221 | 15716 ft | 359 kts | 192° |
| 2026-04-30 18:52 | 6.01107 | -75.26871 | 15277 ft | 357 kts | 193° |
| 2026-04-30 18:52 | 5.98753 | -75.27515 | 14858 ft | 354 kts | 192° |
| 2026-04-30 18:52 | 5.96383 | -75.28162 | 14512 ft | 350 kts | 192° |
| 2026-04-30 18:53 | 5.94067 | -75.28793 | 14370 ft | 339 kts | 192° |
| 2026-04-30 18:53 | 5.91834 | -75.29401 | 14231 ft | 328 kts | 192° |
| 2026-04-30 18:53 | 5.89716 | -75.30169 | 14097 ft | 322 kts | 210° |
| 2026-04-30 18:53 | 5.88159 | -75.31743 | 13973 ft | 320 kts | 239° |
| 2026-04-30 18:54 | 5.87479 | -75.33840 | 13865 ft | 315 kts | 260° |
| 2026-04-30 18:54 | 5.87483 | -75.36019 | 13753 ft | 310 kts | 278° |
| 2026-04-30 18:54 | 5.88094 | -75.38038 | 13543 ft | 306 kts | 294° |
| 2026-04-30 18:54 | 5.89280 | -75.39856 | 12912 ft | 313 kts | 314° |
| 2026-04-30 18:55 | 5.90931 | -75.41187 | 12570 ft | 300 kts | 332° |
| 2026-04-30 18:55 | 5.94815 | -75.42171 | 11863 ft | 278 kts | 2° |
| 2026-04-30 18:55 | 5.96659 | -75.42183 | 11878 ft | 250 kts | 2° |
| 2026-04-30 18:56 | 5.99808 | -75.42207 | 11914 ft | 207 kts | 3° |
| 2026-04-30 18:56 | 6.01202 | -75.42215 | 11925 ft | 196 kts | 2° |
| 2026-04-30 18:56 | 6.02538 | -75.42223 | 11946 ft | 194 kts | 3° |
| 2026-04-30 18:57 | 6.05233 | -75.42239 | 11778 ft | 195 kts | 4° |
| 2026-04-30 18:57 | 6.06591 | -75.42248 | 11573 ft | 194 kts | 2° |
| 2026-04-30 18:57 | 6.08008 | -75.42247 | 10656 ft | 224 kts | 2° |
| 2026-04-30 18:58 | 6.11343 | -75.42222 | 8277 ft | 245 kts | 2° |
| 2026-04-30 18:58 | 6.13019 | -75.42276 | 7458 ft | 230 kts | 1° |
| 2026-04-30 18:58 | 6.14505 | -75.42290 | 7091 ft | 203 kts | 1° |
| 2026-04-30 18:59 | 6.16872 | -75.42310 | 6985 ft | 108 kts | 358° |
| 2026-04-30 19:00 | 6.17568 | -75.42418 | 6992 ft | 12 kts | 253° |